sensor_id;sensor_type;location;lat;lon;timestamp;pressure;altitude;pressure_sealevel;temperature;humidity
76374;BME280;65197;50.164;8.012;2023-08-07T00:02:23;72707.09;;;-144.13;100.00
76374;BME280;65197;50.164;8.012;2023-08-07T00:04:48;72703.22;;;-144.13;100.00
76374;BME280;65197;50.164;8.012;2023-08-07T00:07:14;72703.22;;;-144.13;100.00
76374;BME280;65197;50.164;8.012;2023-08-07T00:09:39;72707.09;;;-144.13;100.00
76374;BME280;65197;50.164;8.012;2023-08-07T00:12:04;72703.22;;;-144.13;100.00
76374;BME280;65197;50.164;8.012;2023-08-07T00:14:30;72703.22;;;-144.13;100.00
76374;BME280;65197;50.164;8.012;2023-08-07T00:16:55;72711.00;;;-144.13;100.00
76374;BME280;65197;50.164;8.012;2023-08-07T00:19:21;72711.00;;;-144.13;100.00
76374;BME280;65197;50.164;8.012;2023-08-07T00:21:46;72718.81;;;-144.13;100.00
76374;BME280;65197;50.164;8.012;2023-08-07T00:24:11;72711.00;;;-144.13;100.00
76374;BME280;65197;50.164;8.012;2023-08-07T00:26:37;72712.97;;;-144.13;100.00
76374;BME280;65197;50.164;8.012;2023-08-07T00:29:02;72716.84;;;-144.13;100.00
76374;BME280;65197;50.164;8.012;2023-08-07T00:31:28;72712.97;;;-144.13;100.00
76374;BME280;65197;50.164;8.012;2023-08-07T00:33:57;72718.81;;;-144.13;100.00
76374;BME280;65197;50.164;8.012;2023-08-07T00:36:22;72716.84;;;-144.13;100.00
76374;BME280;65197;50.164;8.012;2023-08-07T00:38:48;72722.72;;;-144.13;100.00
76374;BME280;65197;50.164;8.012;2023-08-07T00:41:13;72726.63;;;-144.13;100.00
76374;BME280;65197;50.164;8.012;2023-08-07T00:43:39;72724.66;;;-144.13;100.00
76374;BME280;65197;50.164;8.012;2023-08-07T00:46:04;72734.41;;;-144.13;100.00
76374;BME280;65197;50.164;8.012;2023-08-07T00:48:31;72726.63;;;-144.13;100.00
76374;BME280;65197;50.164;8.012;2023-08-07T00:50:56;72730.50;;;-144.13;100.00
76374;BME280;65197;50.164;8.012;2023-08-07T00:53:23;72734.41;;;-144.13;100.00
76374;BME280;65197;50.164;8.012;2023-08-07T00:55:48;72734.41;;;-144.13;100.00
76374;BME280;65197;50.164;8.012;2023-08-07T00:58:14;72734.41;;;-144.13;100.00
76374;BME280;65197;50.164;8.012;2023-08-07T01:00:39;72730.50;;;-144.13;100.00
76374;BME280;65197;50.164;8.012;2023-08-07T01:03:07;72734.41;;;-144.13;100.00
76374;BME280;65197;50.164;8.012;2023-08-07T01:05:32;72734.41;;;-144.13;100.00
76374;BME280;65197;50.164;8.012;2023-08-07T01:07:59;72740.25;;;-144.13;100.00
76374;BME280;65197;50.164;8.012;2023-08-07T01:13:24;72744.16;;;-144.13;100.00
76374;BME280;65197;50.164;8.012;2023-08-07T01:15:55;72742.22;;;-144.13;100.00
76374;BME280;65197;50.164;8.012;2023-08-07T01:18:25;72746.13;;;-144.13;100.00
76374;BME280;65197;50.164;8.012;2023-08-07T01:20:51;72742.22;;;-144.13;100.00
76374;BME280;65197;50.164;8.012;2023-08-07T01:23:16;72750.00;;;-144.13;100.00
76374;BME280;65197;50.164;8.012;2023-08-07T01:25:41;72746.13;;;-144.13;100.00
76374;BME280;65197;50.164;8.012;2023-08-07T01:28:27;72750.00;;;-144.13;100.00
76374;BME280;65197;50.164;8.012;2023-08-07T01:30:59;72746.13;;;-144.13;100.00
76374;BME280;65197;50.164;8.012;2023-08-07T01:33:49;72750.00;;;-144.13;100.00
76374;BME280;65197;50.164;8.012;2023-08-07T01:36:16;72751.97;;;-144.13;100.00
76374;BME280;65197;50.164;8.012;2023-08-07T01:38:42;72755.88;;;-144.13;100.00
76374;BME280;65197;50.164;8.012;2023-08-07T01:41:09;72759.75;;;-144.13;100.00
76374;BME280;65197;50.164;8.012;2023-08-07T01:43:34;72761.72;;;-144.13;100.00
76374;BME280;65197;50.164;8.012;2023-08-07T01:46:00;72759.75;;;-144.13;100.00
76374;BME280;65197;50.164;8.012;2023-08-07T01:48:25;72759.75;;;-144.13;100.00
76374;BME280;65197;50.164;8.012;2023-08-07T01:50:50;72761.72;;;-144.13;100.00
76374;BME280;65197;50.164;8.012;2023-08-07T01:53:16;72765.63;;;-144.13;100.00
76374;BME280;65197;50.164;8.012;2023-08-07T01:55:41;72763.66;;;-144.13;100.00
76374;BME280;65197;50.164;8.012;2023-08-07T01:58:07;72765.63;;;-144.13;100.00
76374;BME280;65197;50.164;8.012;2023-08-07T02:00:32;72765.63;;;-144.13;100.00
76374;BME280;65197;50.164;8.012;2023-08-07T02:02:57;72763.66;;;-144.13;100.00
76374;BME280;65197;50.164;8.012;2023-08-07T02:05:23;72761.72;;;-144.13;100.00
76374;BME280;65197;50.164;8.012;2023-08-07T02:07:48;72755.88;;;-144.13;100.00
76374;BME280;65197;50.164;8.012;2023-08-07T02:10:13;72765.63;;;-144.13;100.00
76374;BME280;65197;50.164;8.012;2023-08-07T02:12:39;72757.81;;;-144.13;100.00
76374;BME280;65197;50.164;8.012;2023-08-07T02:15:05;72761.72;;;-144.13;100.00
76374;BME280;65197;50.164;8.012;2023-08-07T02:17:30;72763.66;;;-144.13;100.00
76374;BME280;65197;50.164;8.012;2023-08-07T02:19:56;72761.72;;;-144.13;100.00
76374;BME280;65197;50.164;8.012;2023-08-07T02:22:22;72761.72;;;-144.13;100.00
76374;BME280;65197;50.164;8.012;2023-08-07T02:24:47;72763.66;;;-144.13;100.00
76374;BME280;65197;50.164;8.012;2023-08-07T02:27:13;72765.63;;;-144.13;100.00
76374;BME280;65197;50.164;8.012;2023-08-07T02:29:38;72767.56;;;-144.13;100.00
76374;BME280;65197;50.164;8.012;2023-08-07T02:32:04;72765.63;;;-144.13;100.00
76374;BME280;65197;50.164;8.012;2023-08-07T02:34:30;72773.41;;;-144.13;100.00
76374;BME280;65197;50.164;8.012;2023-08-07T02:36:55;72767.56;;;-144.13;100.00
76374;BME280;65197;50.164;8.012;2023-08-07T02:39:21;72765.63;;;-144.13;100.00
76374;BME280;65197;50.164;8.012;2023-08-07T02:41:46;72765.63;;;-144.13;100.00
76374;BME280;65197;50.164;8.012;2023-08-07T02:44:11;72773.41;;;-144.13;100.00
76374;BME280;65197;50.164;8.012;2023-08-07T02:46:37;72773.41;;;-144.13;100.00
76374;BME280;65197;50.164;8.012;2023-08-07T02:49:02;72777.31;;;-144.13;100.00
76374;BME280;65197;50.164;8.012;2023-08-07T02:51:28;72777.31;;;-144.13;100.00
76374;BME280;65197;50.164;8.012;2023-08-07T02:53:53;72765.63;;;-144.13;100.00
76374;BME280;65197;50.164;8.012;2023-08-07T02:56:18;72761.72;;;-144.13;100.00
76374;BME280;65197;50.164;8.012;2023-08-07T02:58:44;72765.63;;;-144.13;100.00
76374;BME280;65197;50.164;8.012;2023-08-07T03:01:09;72765.63;;;-144.13;100.00
76374;BME280;65197;50.164;8.012;2023-08-07T03:03:36;72771.47;;;-144.13;100.00
76374;BME280;65197;50.164;8.012;2023-08-07T03:06:03;72769.53;;;-144.13;100.00
76374;BME280;65197;50.164;8.012;2023-08-07T03:08:28;72769.53;;;-144.13;100.00
76374;BME280;65197;50.164;8.012;2023-08-07T03:10:56;72771.47;;;-144.13;100.00
76374;BME280;65197;50.164;8.012;2023-08-07T03:13:22;72761.72;;;-144.13;100.00
76374;BME280;65197;50.164;8.012;2023-08-07T03:15:48;72765.63;;;-144.13;100.00
76374;BME280;65197;50.164;8.012;2023-08-07T03:18:15;72765.63;;;-144.13;100.00
76374;BME280;65197;50.164;8.012;2023-08-07T03:20:41;72767.56;;;-144.13;100.00
76374;BME280;65197;50.164;8.012;2023-08-07T03:23:06;72773.41;;;-144.13;100.00
76374;BME280;65197;50.164;8.012;2023-08-07T03:25:32;72773.41;;;-144.13;100.00
76374;BME280;65197;50.164;8.012;2023-08-07T03:27:57;72773.41;;;-144.13;100.00
76374;BME280;65197;50.164;8.012;2023-08-07T03:30:22;72773.41;;;-144.13;100.00
76374;BME280;65197;50.164;8.012;2023-08-07T03:32:48;72769.53;;;-144.13;100.00
76374;BME280;65197;50.164;8.012;2023-08-07T03:35:13;72781.22;;;-144.13;100.00
76374;BME280;65197;50.164;8.012;2023-08-07T03:37:39;72779.28;;;-144.13;100.00
76374;BME280;65197;50.164;8.012;2023-08-07T03:40:04;72781.22;;;-144.13;100.00
76374;BME280;65197;50.164;8.012;2023-08-07T03:42:30;72777.31;;;-144.13;100.00
76374;BME280;65197;50.164;8.012;2023-08-07T03:44:55;72765.63;;;-144.13;100.00
76374;BME280;65197;50.164;8.012;2023-08-07T03:47:21;72783.16;;;-144.13;100.00
76374;BME280;65197;50.164;8.012;2023-08-07T03:49:46;72789.03;;;-144.13;100.00
76374;BME280;65197;50.164;8.012;2023-08-07T03:52:11;72792.94;;;-144.13;100.00
76374;BME280;65197;50.164;8.012;2023-08-07T03:54:37;72789.03;;;-144.13;100.00
76374;BME280;65197;50.164;8.012;2023-08-07T03:57:02;72789.03;;;-144.13;100.00
76374;BME280;65197;50.164;8.012;2023-08-07T03:59:28;72804.63;;;-144.13;100.00
76374;BME280;65197;50.164;8.012;2023-08-07T04:01:53;72808.53;;;-144.13;100.00
76374;BME280;65197;50.164;8.012;2023-08-07T04:04:18;72798.78;;;-144.13;100.00
76374;BME280;65197;50.164;8.012;2023-08-07T04:06:44;72802.69;;;-144.13;100.00
76374;BME280;65197;50.164;8.012;2023-08-07T04:09:09;72796.81;;;-144.13;100.00
76374;BME280;65197;50.164;8.012;2023-08-07T04:11:35;72792.94;;;-144.13;100.00
76374;BME280;65197;50.164;8.012;2023-08-07T04:14:01;72796.81;;;-144.13;100.00
76374;BME280;65197;50.164;8.012;2023-08-07T04:16:27;72802.69;;;-144.13;100.00
76374;BME280;65197;50.164;8.012;2023-08-07T04:18:52;72800.72;;;-144.13;100.00
76374;BME280;65197;50.164;8.012;2023-08-07T04:21:17;72804.63;;;-144.13;100.00
76374;BME280;65197;50.164;8.012;2023-08-07T04:23:43;72804.63;;;-144.13;100.00
76374;BME280;65197;50.164;8.012;2023-08-07T04:26:08;72802.69;;;-144.13;100.00
76374;BME280;65197;50.164;8.012;2023-08-07T04:28:33;72810.47;;;-144.13;100.00
76374;BME280;65197;50.164;8.012;2023-08-07T04:30:59;72808.53;;;-144.13;100.00
76374;BME280;65197;50.164;8.012;2023-08-07T04:33:24;72812.44;;;-144.13;100.00
76374;BME280;65197;50.164;8.012;2023-08-07T04:35:50;72812.44;;;-144.13;100.00
76374;BME280;65197;50.164;8.012;2023-08-07T04:38:15;72816.31;;;-144.13;100.00
76374;BME280;65197;50.164;8.012;2023-08-07T04:40:48;72816.31;;;-144.13;100.00
76374;BME280;65197;50.164;8.012;2023-08-07T04:43:18;72816.31;;;-144.13;100.00
76374;BME280;65197;50.164;8.012;2023-08-07T04:45:45;72820.22;;;-144.13;100.00
76374;BME280;65197;50.164;8.012;2023-08-07T04:48:11;72820.22;;;-144.13;100.00
76374;BME280;65197;50.164;8.012;2023-08-07T04:50:37;72820.22;;;-144.13;100.00
76374;BME280;65197;50.164;8.012;2023-08-07T04:53:04;72824.13;;;-144.13;100.00
76374;BME280;65197;50.164;8.012;2023-08-07T04:55:30;72829.97;;;-144.13;100.00
76374;BME280;65197;50.164;8.012;2023-08-07T04:57:55;72831.94;;;-144.13;100.00
76374;BME280;65197;50.164;8.012;2023-08-07T05:00:21;72833.88;;;-144.13;100.00
76374;BME280;65197;50.164;8.012;2023-08-07T05:02:47;72835.84;;;-144.13;100.00
76374;BME280;65197;50.164;8.012;2023-08-07T05:05:15;72835.84;;;-144.13;100.00
76374;BME280;65197;50.164;8.012;2023-08-07T05:07:41;72831.94;;;-144.13;100.00
76374;BME280;65197;50.164;8.012;2023-08-07T05:10:08;72828.03;;;-144.13;100.00
76374;BME280;65197;50.164;8.012;2023-08-07T05:12:34;72816.31;;;-144.13;100.00
76374;BME280;65197;50.164;8.012;2023-08-07T05:14:59;72824.13;;;-144.13;100.00
76374;BME280;65197;50.164;8.012;2023-08-07T05:17:24;72833.88;;;-144.13;100.00
76374;BME280;65197;50.164;8.012;2023-08-07T05:19:50;72831.94;;;-144.13;100.00
76374;BME280;65197;50.164;8.012;2023-08-07T05:22:15;72829.97;;;-144.13;100.00
76374;BME280;65197;50.164;8.012;2023-08-07T05:24:40;72824.13;;;-144.13;100.00
76374;BME280;65197;50.164;8.012;2023-08-07T05:27:08;72829.97;;;-144.13;100.00
76374;BME280;65197;50.164;8.012;2023-08-07T05:29:34;72824.13;;;-144.13;100.00
76374;BME280;65197;50.164;8.012;2023-08-07T05:32:02;72831.94;;;-144.13;100.00
76374;BME280;65197;50.164;8.012;2023-08-07T05:34:28;72831.94;;;-144.13;100.00
76374;BME280;65197;50.164;8.012;2023-08-07T05:36:54;72829.97;;;-144.13;100.00
76374;BME280;65197;50.164;8.012;2023-08-07T05:39:19;72829.97;;;-144.13;100.00
76374;BME280;65197;50.164;8.012;2023-08-07T05:41:45;72833.88;;;-144.13;100.00
76374;BME280;65197;50.164;8.012;2023-08-07T05:44:10;72837.78;;;-144.13;100.00
76374;BME280;65197;50.164;8.012;2023-08-07T05:46:35;72841.69;;;-144.13;100.00
76374;BME280;65197;50.164;8.012;2023-08-07T05:49:01;72841.69;;;-144.13;100.00
76374;BME280;65197;50.164;8.012;2023-08-07T05:51:26;72837.78;;;-144.13;100.00
76374;BME280;65197;50.164;8.012;2023-08-07T05:53:51;72843.63;;;-144.13;100.00
76374;BME280;65197;50.164;8.012;2023-08-07T05:56:17;72847.53;;;-144.13;100.00
76374;BME280;65197;50.164;8.012;2023-08-07T05:58:43;72855.34;;;-144.13;100.00
76374;BME280;65197;50.164;8.012;2023-08-07T06:01:08;72857.28;;;-144.13;100.00
76374;BME280;65197;50.164;8.012;2023-08-07T06:03:33;72847.53;;;-144.13;100.00
76374;BME280;65197;50.164;8.012;2023-08-07T06:05:59;72853.38;;;-144.13;100.00
76374;BME280;65197;50.164;8.012;2023-08-07T06:08:24;72849.47;;;-144.13;100.00
76374;BME280;65197;50.164;8.012;2023-08-07T06:10:50;72843.63;;;-144.13;100.00
76374;BME280;65197;50.164;8.012;2023-08-07T06:13:15;72839.72;;;-144.13;100.00
76374;BME280;65197;50.164;8.012;2023-08-07T06:15:41;72831.94;;;-144.13;100.00
76374;BME280;65197;50.164;8.012;2023-08-07T06:18:06;72831.94;;;-144.13;100.00
76374;BME280;65197;50.164;8.012;2023-08-07T06:20:31;72833.88;;;-144.13;100.00
76374;BME280;65197;50.164;8.012;2023-08-07T06:22:57;72835.84;;;-144.13;100.00
76374;BME280;65197;50.164;8.012;2023-08-07T06:25:22;72845.59;;;-144.13;100.00
76374;BME280;65197;50.164;8.012;2023-08-07T06:27:47;72839.72;;;-144.13;100.00
76374;BME280;65197;50.164;8.012;2023-08-07T06:30:13;72851.44;;;-144.13;100.00
76374;BME280;65197;50.164;8.012;2023-08-07T06:32:41;72851.44;;;-144.13;100.00
76374;BME280;65197;50.164;8.012;2023-08-07T06:35:07;72847.53;;;-144.13;100.00
76374;BME280;65197;50.164;8.012;2023-08-07T06:37:33;72839.72;;;-144.13;100.00
76374;BME280;65197;50.164;8.012;2023-08-07T06:39:58;72841.69;;;-144.13;100.00
76374;BME280;65197;50.164;8.012;2023-08-07T06:42:24;72839.72;;;-144.13;100.00
76374;BME280;65197;50.164;8.012;2023-08-07T06:44:49;72831.94;;;-144.13;100.00
76374;BME280;65197;50.164;8.012;2023-08-07T06:47:14;72831.94;;;-144.13;100.00
76374;BME280;65197;50.164;8.012;2023-08-07T06:49:40;72816.31;;;-144.13;100.00
76374;BME280;65197;50.164;8.012;2023-08-07T06:52:05;72800.72;;;-144.13;100.00
76374;BME280;65197;50.164;8.012;2023-08-07T06:54:31;72800.72;;;-144.13;100.00
76374;BME280;65197;50.164;8.012;2023-08-07T06:56:56;72812.44;;;-144.13;100.00
76374;BME280;65197;50.164;8.012;2023-08-07T06:59:22;72816.31;;;-144.13;100.00
76374;BME280;65197;50.164;8.012;2023-08-07T07:01:47;72812.44;;;-144.13;100.00
76374;BME280;65197;50.164;8.012;2023-08-07T07:04:13;72820.22;;;-144.13;100.00
76374;BME280;65197;50.164;8.012;2023-08-07T07:06:38;72824.13;;;-144.13;100.00
76374;BME280;65197;50.164;8.012;2023-08-07T07:09:04;72818.28;;;-144.13;100.00
76374;BME280;65197;50.164;8.012;2023-08-07T07:11:29;72820.22;;;-144.13;100.00
76374;BME280;65197;50.164;8.012;2023-08-07T07:13:55;72822.19;;;-144.13;100.00
76374;BME280;65197;50.164;8.012;2023-08-07T07:16:21;72818.28;;;-144.13;100.00
76374;BME280;65197;50.164;8.012;2023-08-07T07:18:50;72826.06;;;-144.13;100.00
76374;BME280;65197;50.164;8.012;2023-08-07T07:21:16;72820.22;;;-144.13;100.00
76374;BME280;65197;50.164;8.012;2023-08-07T07:23:42;72833.88;;;-144.13;100.00
76374;BME280;65197;50.164;8.012;2023-08-07T07:26:07;72824.13;;;-144.13;100.00
76374;BME280;65197;50.164;8.012;2023-08-07T07:28:32;72820.22;;;-144.13;100.00
76374;BME280;65197;50.164;8.012;2023-08-07T07:30:58;72824.13;;;-144.13;100.00
76374;BME280;65197;50.164;8.012;2023-08-07T07:33:23;72829.97;;;-144.13;100.00
76374;BME280;65197;50.164;8.012;2023-08-07T07:35:49;72820.22;;;-144.13;100.00
76374;BME280;65197;50.164;8.012;2023-08-07T07:38:14;72804.63;;;-144.13;100.00
76374;BME280;65197;50.164;8.012;2023-08-07T07:40:40;72798.78;;;-144.13;100.00
76374;BME280;65197;50.164;8.012;2023-08-07T07:43:06;72794.88;;;-144.13;100.00
76374;BME280;65197;50.164;8.012;2023-08-07T07:45:31;72796.81;;;-144.13;100.00
76374;BME280;65197;50.164;8.012;2023-08-07T07:47:59;72779.28;;;-144.13;100.00
76374;BME280;65197;50.164;8.012;2023-08-07T07:50:24;72740.25;;;-144.13;100.00
76374;BME280;65197;50.164;8.012;2023-08-07T07:52:49;72718.81;;;-144.13;100.00
76374;BME280;65197;50.164;8.012;2023-08-07T07:55:15;72695.41;;;-144.13;100.00
76374;BME280;65197;50.164;8.012;2023-08-07T07:57:41;72695.41;;;-144.13;100.00
76374;BME280;65197;50.164;8.012;2023-08-07T08:00:07;72689.56;;;-144.13;100.00
76374;BME280;65197;50.164;8.012;2023-08-07T08:02:36;72652.50;;;-144.13;100.00
76374;BME280;65197;50.164;8.012;2023-08-07T08:05:01;72629.09;;;-144.13;100.00
76374;BME280;65197;50.164;8.012;2023-08-07T08:07:27;72621.28;;;-144.13;100.00
76374;BME280;65197;50.164;8.012;2023-08-07T08:09:52;72636.91;;;-144.13;100.00
76374;BME280;65197;50.164;8.012;2023-08-07T08:12:18;72648.59;;;-144.13;100.00
76374;BME280;65197;50.164;8.012;2023-08-07T08:14:43;72656.41;;;-144.13;100.00
76374;BME280;65197;50.164;8.012;2023-08-07T08:17:08;72685.66;;;-144.13;100.00
76374;BME280;65197;50.164;8.012;2023-08-07T08:19:34;72689.56;;;-144.13;100.00
76374;BME280;65197;50.164;8.012;2023-08-07T08:22:01;72722.72;;;-144.13;100.00
76374;BME280;65197;50.164;8.012;2023-08-07T08:24:26;72718.81;;;-144.13;100.00
76374;BME280;65197;50.164;8.012;2023-08-07T08:26:52;72728.56;;;-144.13;100.00
76374;BME280;65197;50.164;8.012;2023-08-07T08:29:17;72750.00;;;-144.13;100.00
76374;BME280;65197;50.164;8.012;2023-08-07T08:31:42;72759.75;;;-144.13;100.00
76374;BME280;65197;50.164;8.012;2023-08-07T08:34:08;72761.72;;;-144.13;100.00
76374;BME280;65197;50.164;8.012;2023-08-07T08:36:33;72765.63;;;-144.13;100.00
76374;BME280;65197;50.164;8.012;2023-08-07T08:38:58;72775.38;;;-144.13;100.00
76374;BME280;65197;50.164;8.012;2023-08-07T08:41:24;72773.41;;;-144.13;100.00
76374;BME280;65197;50.164;8.012;2023-08-07T08:43:51;72783.16;;;-144.13;100.00
76374;BME280;65197;50.164;8.012;2023-08-07T08:46:20;72800.72;;;-144.13;100.00
76374;BME280;65197;50.164;8.012;2023-08-07T08:48:52;72820.22;;;-144.13;100.00
76374;BME280;65197;50.164;8.012;2023-08-07T08:51:21;72816.31;;;-144.13;100.00
76374;BME280;65197;50.164;8.012;2023-08-07T08:53:47;72829.97;;;-144.13;100.00
76374;BME280;65197;50.164;8.012;2023-08-07T08:56:15;72849.47;;;-144.13;100.00
76374;BME280;65197;50.164;8.012;2023-08-07T08:58:40;72847.53;;;-144.13;100.00
76374;BME280;65197;50.164;8.012;2023-08-07T09:01:06;72861.19;;;-144.13;100.00
76374;BME280;65197;50.164;8.012;2023-08-07T09:03:32;72863.13;;;-144.13;100.00
76374;BME280;65197;50.164;8.012;2023-08-07T09:05:58;72878.75;;;-144.13;100.00
76374;BME280;65197;50.164;8.012;2023-08-07T09:08:27;72870.94;;;-144.13;100.00
76374;BME280;65197;50.164;8.012;2023-08-07T09:10:55;72863.13;;;-144.13;100.00
76374;BME280;65197;50.164;8.012;2023-08-07T09:13:22;72867.03;;;-144.13;100.00
76374;BME280;65197;50.164;8.012;2023-08-07T09:15:50;72855.34;;;-144.13;100.00
76374;BME280;65197;50.164;8.012;2023-08-07T09:18:17;72855.34;;;-144.13;100.00
76374;BME280;65197;50.164;8.012;2023-08-07T09:20:44;72847.53;;;-144.13;100.00
76374;BME280;65197;50.164;8.012;2023-08-07T09:23:09;72843.63;;;-144.13;100.00
76374;BME280;65197;50.164;8.012;2023-08-07T09:25:35;72849.47;;;-144.13;100.00
76374;BME280;65197;50.164;8.012;2023-08-07T09:28:07;72857.28;;;-144.13;100.00
76374;BME280;65197;50.164;8.012;2023-08-07T09:30:34;72855.34;;;-144.13;100.00
76374;BME280;65197;50.164;8.012;2023-08-07T09:33:00;72843.63;;;-144.13;100.00
76374;BME280;65197;50.164;8.012;2023-08-07T09:35:27;72849.47;;;-144.13;100.00
76374;BME280;65197;50.164;8.012;2023-08-07T09:37:52;72853.38;;;-144.13;100.00
76374;BME280;65197;50.164;8.012;2023-08-07T09:40:18;72845.59;;;-144.13;100.00
76374;BME280;65197;50.164;8.012;2023-08-07T09:42:44;72843.63;;;-144.13;100.00
76374;BME280;65197;50.164;8.012;2023-08-07T09:45:25;72851.44;;;-144.13;100.00
76374;BME280;65197;50.164;8.012;2023-08-07T09:48:02;72853.38;;;-144.13;100.00
76374;BME280;65197;50.164;8.012;2023-08-07T09:50:28;72831.94;;;-144.13;100.00
76374;BME280;65197;50.164;8.012;2023-08-07T09:52:54;72820.22;;;-144.13;100.00
76374;BME280;65197;50.164;8.012;2023-08-07T09:55:23;72781.22;;;-144.13;100.00
76374;BME280;65197;50.164;8.012;2023-08-07T09:57:49;72711.00;;;-144.13;100.00
76374;BME280;65197;50.164;8.012;2023-08-07T10:00:16;72672.00;;;-144.13;100.00
76374;BME280;65197;50.164;8.012;2023-08-07T10:02:47;72679.81;;;-144.13;100.00
76374;BME280;65197;50.164;8.012;2023-08-07T10:05:14;72699.31;;;-144.13;100.00
76374;BME280;65197;50.164;8.012;2023-08-07T10:07:40;72726.63;;;-144.13;100.00
76374;BME280;65197;50.164;8.012;2023-08-07T10:10:06;72728.56;;;-144.13;100.00
76374;BME280;65197;50.164;8.012;2023-08-07T10:12:32;72695.41;;;-144.13;100.00
76374;BME280;65197;50.164;8.012;2023-08-07T10:15:01;72675.91;;;-144.13;100.00
76374;BME280;65197;50.164;8.012;2023-08-07T10:17:27;72621.28;;;-144.13;100.00
76374;BME280;65197;50.164;8.012;2023-08-07T10:19:52;72613.50;;;-144.13;100.00
76374;BME280;65197;50.164;8.012;2023-08-07T10:22:23;72623.25;;;-144.13;100.00
76374;BME280;65197;50.164;8.012;2023-08-07T10:24:50;72619.34;;;-144.13;100.00
76374;BME280;65197;50.164;8.012;2023-08-07T10:27:19;72648.59;;;-144.13;100.00
76374;BME280;65197;50.164;8.012;2023-08-07T10:29:46;72636.91;;;-144.13;100.00
76374;BME280;65197;50.164;8.012;2023-08-07T10:32:13;72627.16;;;-144.13;100.00
76374;BME280;65197;50.164;8.012;2023-08-07T10:34:43;72652.50;;;-144.13;100.00
76374;BME280;65197;50.164;8.012;2023-08-07T10:37:32;72648.59;;;-144.13;100.00
76374;BME280;65197;50.164;8.012;2023-08-07T10:40:02;72648.59;;;-144.13;100.00
76374;BME280;65197;50.164;8.012;2023-08-07T10:42:32;72660.31;;;-144.13;100.00
76374;BME280;65197;50.164;8.012;2023-08-07T10:45:01;72666.16;;;-144.13;100.00
76374;BME280;65197;50.164;8.012;2023-08-07T10:47:33;72675.91;;;-144.13;100.00
76374;BME280;65197;50.164;8.012;2023-08-07T10:49:59;72660.31;;;-144.13;100.00
76374;BME280;65197;50.164;8.012;2023-08-07T10:52:25;72654.44;;;-144.13;100.00
76374;BME280;65197;50.164;8.012;2023-08-07T10:54:50;72668.09;;;-144.13;100.00
76374;BME280;65197;50.164;8.012;2023-08-07T10:57:17;72675.91;;;-144.13;100.00
76374;BME280;65197;50.164;8.012;2023-08-07T11:00:03;72670.06;;;-144.13;100.00
76374;BME280;65197;50.164;8.012;2023-08-07T11:02:31;72650.53;;;-144.13;100.00
76374;BME280;65197;50.164;8.012;2023-08-07T11:04:58;72625.19;;;-144.13;100.00
76374;BME280;65197;50.164;8.012;2023-08-07T11:07:30;72594.00;;;-144.13;100.00
76374;BME280;65197;50.164;8.012;2023-08-07T11:09:57;72601.78;;;-144.13;100.00
76374;BME280;65197;50.164;8.012;2023-08-07T11:12:26;72636.91;;;-144.13;100.00
76374;BME280;65197;50.164;8.012;2023-08-07T11:14:52;72675.91;;;-144.13;100.00
76374;BME280;65197;50.164;8.012;2023-08-07T11:17:25;72668.09;;;-144.13;100.00
76374;BME280;65197;50.164;8.012;2023-08-07T11:19:50;72681.75;;;-144.13;100.00
76374;BME280;65197;50.164;8.012;2023-08-07T11:22:16;72691.50;;;-144.13;100.00
76374;BME280;65197;50.164;8.012;2023-08-07T11:24:41;72707.09;;;-144.13;100.00
76374;BME280;65197;50.164;8.012;2023-08-07T11:27:08;72711.00;;;-144.13;100.00
76374;BME280;65197;50.164;8.012;2023-08-07T11:29:33;72712.97;;;-144.13;100.00
76374;BME280;65197;50.164;8.012;2023-08-07T11:31:58;72714.91;;;-144.13;100.00
76374;BME280;65197;50.164;8.012;2023-08-07T11:34:24;72718.81;;;-144.13;100.00
76374;BME280;65197;50.164;8.012;2023-08-07T11:36:50;72730.50;;;-144.13;100.00
76374;BME280;65197;50.164;8.012;2023-08-07T11:39:16;72734.41;;;-144.13;100.00
76374;BME280;65197;50.164;8.012;2023-08-07T11:41:42;72740.25;;;-144.13;100.00
76374;BME280;65197;50.164;8.012;2023-08-07T11:44:09;72746.13;;;-144.13;100.00
76374;BME280;65197;50.164;8.012;2023-08-07T11:46:35;72738.31;;;-144.13;100.00
76374;BME280;65197;50.164;8.012;2023-08-07T11:49:01;72742.22;;;-144.13;100.00
76374;BME280;65197;50.164;8.012;2023-08-07T11:51:29;72724.66;;;-144.13;100.00
76374;BME280;65197;50.164;8.012;2023-08-07T11:53:54;72699.31;;;-144.13;100.00
76374;BME280;65197;50.164;8.012;2023-08-07T11:56:23;72664.19;;;-144.13;100.00
76374;BME280;65197;50.164;8.012;2023-08-07T11:58:50;72640.78;;;-144.13;100.00
76374;BME280;65197;50.164;8.012;2023-08-07T12:01:19;72621.28;;;-144.13;100.00
76374;BME280;65197;50.164;8.012;2023-08-07T12:03:54;72613.50;;;-144.13;100.00
76374;BME280;65197;50.164;8.012;2023-08-07T12:06:20;72601.78;;;-144.13;99.53
76374;BME280;65197;50.164;8.012;2023-08-07T12:08:48;72613.50;;;-144.13;100.00
76374;BME280;65197;50.164;8.012;2023-08-07T12:11:14;72664.19;;;-144.13;100.00
76374;BME280;65197;50.164;8.012;2023-08-07T12:13:42;72683.69;;;-144.13;100.00
76374;BME280;65197;50.164;8.012;2023-08-07T12:16:08;72679.81;;;-144.13;100.00
76374;BME280;65197;50.164;8.012;2023-08-07T12:18:34;72652.50;;;-144.13;100.00
76374;BME280;65197;50.164;8.012;2023-08-07T12:21:02;72629.09;;;-144.13;100.00
76374;BME280;65197;50.164;8.012;2023-08-07T12:23:29;72578.38;;;-144.13;98.58
76374;BME280;65197;50.164;8.012;2023-08-07T12:25:55;72551.09;;;-144.13;99.22
76374;BME280;65197;50.164;8.012;2023-08-07T12:28:21;72545.22;;;-144.13;97.36
76374;BME280;65197;50.164;8.012;2023-08-07T12:30:47;72515.97;;;-144.13;99.13